sensor_id;sensor_type;location;lat;lon;timestamp;temperature;humidity
23729;DHT22;12045;60.214;24.724;2022-12-28T00:01:31;1.40;99.90
23729;DHT22;12045;60.214;24.724;2022-12-28T00:04:04;1.70;99.90
23729;DHT22;12045;60.214;24.724;2022-12-28T00:06:32;1.20;99.90
23729;DHT22;12045;60.214;24.724;2022-12-28T00:09:01;1.30;99.90
23729;DHT22;12045;60.214;24.724;2022-12-28T00:11:29;0.40;99.90
23729;DHT22;12045;60.214;24.724;2022-12-28T00:13:59;1.10;99.90
23729;DHT22;12045;60.214;24.724;2022-12-28T00:16:30;3.00;99.90
23729;DHT22;12045;60.214;24.724;2022-12-28T00:19:03;1.90;99.90
23729;DHT22;12045;60.214;24.724;2022-12-28T00:21:31;1.10;99.90
23729;DHT22;12045;60.214;24.724;2022-12-28T00:24:00;1.10;99.90
23729;DHT22;12045;60.214;24.724;2022-12-28T00:26:30;3.00;99.90
23729;DHT22;12045;60.214;24.724;2022-12-28T00:28:58;1.30;99.90
23729;DHT22;12045;60.214;24.724;2022-12-28T00:31:32;3.00;99.90
23729;DHT22;12045;60.214;24.724;2022-12-28T00:34:01;2.90;99.90
23729;DHT22;12045;60.214;24.724;2022-12-28T00:36:29;4.20;99.90
23729;DHT22;12045;60.214;24.724;2022-12-28T00:39:17;1.40;99.90
23729;DHT22;12045;60.214;24.724;2022-12-28T00:41:45;3.00;99.90
23729;DHT22;12045;60.214;24.724;2022-12-28T00:44:12;2.90;99.90
23729;DHT22;12045;60.214;24.724;2022-12-28T00:46:40;2.20;99.90
23729;DHT22;12045;60.214;24.724;2022-12-28T00:49:07;2.40;99.90
23729;DHT22;12045;60.214;24.724;2022-12-28T00:51:35;1.40;99.90
23729;DHT22;12045;60.214;24.724;2022-12-28T00:54:03;1.60;99.90
23729;DHT22;12045;60.214;24.724;2022-12-28T00:56:30;1.50;99.90
23729;DHT22;12045;60.214;24.724;2022-12-28T00:58:59;1.50;99.90
23729;DHT22;12045;60.214;24.724;2022-12-28T01:01:29;1.50;99.90
23729;DHT22;12045;60.214;24.724;2022-12-28T01:03:57;1.60;99.90
23729;DHT22;12045;60.214;24.724;2022-12-28T01:06:26;2.90;99.90
23729;DHT22;12045;60.214;24.724;2022-12-28T01:08:54;3.10;99.90
23729;DHT22;12045;60.214;24.724;2022-12-28T01:11:24;1.60;99.90
23729;DHT22;12045;60.214;24.724;2022-12-28T01:13:53;2.50;99.90
23729;DHT22;12045;60.214;24.724;2022-12-28T01:16:28;3.20;99.90
23729;DHT22;12045;60.214;24.724;2022-12-28T01:18:58;3.90;99.90
23729;DHT22;12045;60.214;24.724;2022-12-28T01:21:29;3.30;99.90
23729;DHT22;12045;60.214;24.724;2022-12-28T01:23:59;2.60;99.90
23729;DHT22;12045;60.214;24.724;2022-12-28T01:26:28;3.30;99.90
23729;DHT22;12045;60.214;24.724;2022-12-28T01:28:57;2.30;99.90
23729;DHT22;12045;60.214;24.724;2022-12-28T01:31:25;1.90;99.90
23729;DHT22;12045;60.214;24.724;2022-12-28T01:33:53;2.70;99.90
23729;DHT22;12045;60.214;24.724;2022-12-28T01:36:26;2.00;99.90
23729;DHT22;12045;60.214;24.724;2022-12-28T01:38:56;2.20;99.90
23729;DHT22;12045;60.214;24.724;2022-12-28T01:41:26;3.00;99.90
23729;DHT22;12045;60.214;24.724;2022-12-28T01:49:17;1.70;99.90
23729;DHT22;12045;60.214;24.724;2022-12-28T01:54:28;1.70;99.90
23729;DHT22;12045;60.214;24.724;2022-12-28T01:56:57;2.70;99.90
23729;DHT22;12045;60.214;24.724;2022-12-28T01:59:28;1.50;99.90
23729;DHT22;12045;60.214;24.724;2022-12-28T02:01:57;2.70;99.90
23729;DHT22;12045;60.214;24.724;2022-12-28T02:04:26;2.40;99.90
23729;DHT22;12045;60.214;24.724;2022-12-28T02:06:54;1.30;99.90
23729;DHT22;12045;60.214;24.724;2022-12-28T02:09:37;1.30;99.90
23729;DHT22;12045;60.214;24.724;2022-12-28T02:12:12;1.70;99.90
23729;DHT22;12045;60.214;24.724;2022-12-28T02:14:40;2.90;99.90
23729;DHT22;12045;60.214;24.724;2022-12-28T02:17:09;1.90;99.90
23729;DHT22;12045;60.214;24.724;2022-12-28T02:19:43;1.40;99.90
23729;DHT22;12045;60.214;24.724;2022-12-28T02:28:01;1.30;99.90
23729;DHT22;12045;60.214;24.724;2022-12-28T02:30:36;2.10;99.90
23729;DHT22;12045;60.214;24.724;2022-12-28T02:35:53;1.40;99.90
23729;DHT22;12045;60.214;24.724;2022-12-28T02:38:37;1.30;99.90
23729;DHT22;12045;60.214;24.724;2022-12-28T02:41:15;1.90;99.90
23729;DHT22;12045;60.214;24.724;2022-12-28T02:43:44;2.40;99.90
23729;DHT22;12045;60.214;24.724;2022-12-28T02:49:16;3.10;99.90
23729;DHT22;12045;60.214;24.724;2022-12-28T02:52:40;1.90;99.90
23729;DHT22;12045;60.214;24.724;2022-12-28T03:04:11;1.60;99.90
23729;DHT22;12045;60.214;24.724;2022-12-28T03:15:29;1.10;99.90
23729;DHT22;12045;60.214;24.724;2022-12-28T03:18:12;2.70;99.90
23729;DHT22;12045;60.214;24.724;2022-12-28T03:21:07;1.40;99.90
23729;DHT22;12045;60.214;24.724;2022-12-28T03:23:56;2.00;99.90
23729;DHT22;12045;60.214;24.724;2022-12-28T03:26:47;2.20;99.90
23729;DHT22;12045;60.214;24.724;2022-12-28T03:29:46;1.50;99.90
23729;DHT22;12045;60.214;24.724;2022-12-28T03:32:34;2.10;99.90
23729;DHT22;12045;60.214;24.724;2022-12-28T03:35:02;2.10;99.90
23729;DHT22;12045;60.214;24.724;2022-12-28T03:37:38;1.50;99.90
23729;DHT22;12045;60.214;24.724;2022-12-28T03:40:18;1.90;99.90
23729;DHT22;12045;60.214;24.724;2022-12-28T03:42:50;1.50;99.90
23729;DHT22;12045;60.214;24.724;2022-12-28T03:45:49;2.80;99.90
23729;DHT22;12045;60.214;24.724;2022-12-28T03:48:18;1.40;99.90
23729;DHT22;12045;60.214;24.724;2022-12-28T03:50:47;2.60;99.90
23729;DHT22;12045;60.214;24.724;2022-12-28T03:53:16;2.40;99.90
23729;DHT22;12045;60.214;24.724;2022-12-28T03:55:46;2.60;99.90
23729;DHT22;12045;60.214;24.724;2022-12-28T03:58:13;1.30;99.90
23729;DHT22;12045;60.214;24.724;2022-12-28T04:00:41;2.40;99.90
23729;DHT22;12045;60.214;24.724;2022-12-28T04:03:08;1.80;99.90
23729;DHT22;12045;60.214;24.724;2022-12-28T04:05:36;2.70;99.90
23729;DHT22;12045;60.214;24.724;2022-12-28T04:08:03;2.70;99.90
23729;DHT22;12045;60.214;24.724;2022-12-28T04:10:31;2.10;99.90
23729;DHT22;12045;60.214;24.724;2022-12-28T04:12:58;1.40;99.90
23729;DHT22;12045;60.214;24.724;2022-12-28T04:15:25;2.30;99.90
23729;DHT22;12045;60.214;24.724;2022-12-28T04:17:53;1.30;99.90
23729;DHT22;12045;60.214;24.724;2022-12-28T04:20:20;1.30;99.90
23729;DHT22;12045;60.214;24.724;2022-12-28T04:22:48;1.60;99.90
23729;DHT22;12045;60.214;24.724;2022-12-28T04:25:15;1.30;99.90
23729;DHT22;12045;60.214;24.724;2022-12-28T04:27:42;2.80;99.90
23729;DHT22;12045;60.214;24.724;2022-12-28T04:30:10;1.40;99.90
23729;DHT22;12045;60.214;24.724;2022-12-28T04:32:38;1.40;99.90
23729;DHT22;12045;60.214;24.724;2022-12-28T04:35:05;2.50;99.90
23729;DHT22;12045;60.214;24.724;2022-12-28T04:37:36;1.50;99.90
23729;DHT22;12045;60.214;24.724;2022-12-28T04:40:04;1.40;99.90
23729;DHT22;12045;60.214;24.724;2022-12-28T04:42:31;1.40;99.90
23729;DHT22;12045;60.214;24.724;2022-12-28T04:44:59;2.50;99.90
23729;DHT22;12045;60.214;24.724;2022-12-28T04:47:27;1.70;99.90
23729;DHT22;12045;60.214;24.724;2022-12-28T04:49:54;3.00;99.90
23729;DHT22;12045;60.214;24.724;2022-12-28T04:52:22;0.80;99.90
23729;DHT22;12045;60.214;24.724;2022-12-28T04:54:50;1.00;99.90
23729;DHT22;12045;60.214;24.724;2022-12-28T04:57:17;1.30;99.90
23729;DHT22;12045;60.214;24.724;2022-12-28T04:59:44;1.10;99.90
23729;DHT22;12045;60.214;24.724;2022-12-28T05:02:12;1.70;99.90
23729;DHT22;12045;60.214;24.724;2022-12-28T05:04:39;1.30;99.90
23729;DHT22;12045;60.214;24.724;2022-12-28T05:07:07;1.30;99.90
23729;DHT22;12045;60.214;24.724;2022-12-28T05:09:34;2.10;99.90
23729;DHT22;12045;60.214;24.724;2022-12-28T05:12:02;2.20;99.90
23729;DHT22;12045;60.214;24.724;2022-12-28T05:14:29;0.90;99.90
23729;DHT22;12045;60.214;24.724;2022-12-28T05:17:03;1.70;99.90
23729;DHT22;12045;60.214;24.724;2022-12-28T05:19:31;2.50;99.90
23729;DHT22;12045;60.214;24.724;2022-12-28T05:21:58;1.20;99.90
23729;DHT22;12045;60.214;24.724;2022-12-28T05:24:26;0.90;99.90
23729;DHT22;12045;60.214;24.724;2022-12-28T05:26:53;2.00;99.90
23729;DHT22;12045;60.214;24.724;2022-12-28T05:29:21;2.30;99.90
23729;DHT22;12045;60.214;24.724;2022-12-28T05:31:48;2.70;99.90
23729;DHT22;12045;60.214;24.724;2022-12-28T05:34:16;1.10;99.90
23729;DHT22;12045;60.214;24.724;2022-12-28T05:36:43;2.40;99.90
23729;DHT22;12045;60.214;24.724;2022-12-28T05:39:10;1.60;99.90
23729;DHT22;12045;60.214;24.724;2022-12-28T05:41:40;2.50;99.90
23729;DHT22;12045;60.214;24.724;2022-12-28T05:44:07;1.20;99.90
23729;DHT22;12045;60.214;24.724;2022-12-28T05:46:35;2.60;99.90
23729;DHT22;12045;60.214;24.724;2022-12-28T05:49:02;2.60;99.90
23729;DHT22;12045;60.214;24.724;2022-12-28T05:51:31;1.70;99.90
23729;DHT22;12045;60.214;24.724;2022-12-28T05:54:00;1.90;99.90
23729;DHT22;12045;60.214;24.724;2022-12-28T05:56:31;2.80;99.90
23729;DHT22;12045;60.214;24.724;2022-12-28T05:59:01;1.60;99.90
23729;DHT22;12045;60.214;24.724;2022-12-28T06:01:32;2.60;99.90
23729;DHT22;12045;60.214;24.724;2022-12-28T06:04:02;3.10;99.90
23729;DHT22;12045;60.214;24.724;2022-12-28T06:06:31;1.30;99.90
23729;DHT22;12045;60.214;24.724;2022-12-28T06:08:59;1.10;99.90
23729;DHT22;12045;60.214;24.724;2022-12-28T06:11:28;0.80;99.90
23729;DHT22;12045;60.214;24.724;2022-12-28T06:13:58;2.00;99.90
23729;DHT22;12045;60.214;24.724;2022-12-28T06:16:28;0.90;99.90
23729;DHT22;12045;60.214;24.724;2022-12-28T06:18:56;2.50;99.90
23729;DHT22;12045;60.214;24.724;2022-12-28T06:21:27;1.50;99.90
23729;DHT22;12045;60.214;24.724;2022-12-28T06:23:56;2.70;99.90
23729;DHT22;12045;60.214;24.724;2022-12-28T06:26:25;3.10;99.90
23729;DHT22;12045;60.214;24.724;2022-12-28T06:28:53;1.20;99.90
23729;DHT22;12045;60.214;24.724;2022-12-28T06:31:26;1.10;99.90
23729;DHT22;12045;60.214;24.724;2022-12-28T06:33:55;1.40;99.90
23729;DHT22;12045;60.214;24.724;2022-12-28T06:36:26;2.10;99.90
23729;DHT22;12045;60.214;24.724;2022-12-28T06:38:55;2.70;99.90
23729;DHT22;12045;60.214;24.724;2022-12-28T06:41:24;2.30;99.90
23729;DHT22;12045;60.214;24.724;2022-12-28T06:43:52;2.70;99.90
23729;DHT22;12045;60.214;24.724;2022-12-28T06:46:22;2.00;99.90
23729;DHT22;12045;60.214;24.724;2022-12-28T06:48:50;2.90;99.90
23729;DHT22;12045;60.214;24.724;2022-12-28T06:51:23;1.20;99.90
23729;DHT22;12045;60.214;24.724;2022-12-28T06:53:52;2.50;99.90
23729;DHT22;12045;60.214;24.724;2022-12-28T06:56:25;3.00;99.90
23729;DHT22;12045;60.214;24.724;2022-12-28T06:58:53;1.90;99.90
23729;DHT22;12045;60.214;24.724;2022-12-28T07:01:34;2.20;99.90
23729;DHT22;12045;60.214;24.724;2022-12-28T07:04:04;2.80;99.90
23729;DHT22;12045;60.214;24.724;2022-12-28T07:06:50;2.80;99.90
23729;DHT22;12045;60.214;24.724;2022-12-28T07:09:17;2.40;99.90
23729;DHT22;12045;60.214;24.724;2022-12-28T07:11:49;1.30;99.90
23729;DHT22;12045;60.214;24.724;2022-12-28T07:14:16;2.60;99.90
23729;DHT22;12045;60.214;24.724;2022-12-28T07:16:46;1.00;99.90
23729;DHT22;12045;60.214;24.724;2022-12-28T07:19:13;2.60;99.90
23729;DHT22;12045;60.214;24.724;2022-12-28T07:21:41;1.10;99.90
23729;DHT22;12045;60.214;24.724;2022-12-28T07:24:08;1.10;99.90
23729;DHT22;12045;60.214;24.724;2022-12-28T07:26:36;1.10;99.90
23729;DHT22;12045;60.214;24.724;2022-12-28T07:29:05;2.50;99.90
23729;DHT22;12045;60.214;24.724;2022-12-28T07:31:38;1.50;99.90
23729;DHT22;12045;60.214;24.724;2022-12-28T07:34:12;2.60;99.90
23729;DHT22;12045;60.214;24.724;2022-12-28T07:36:39;1.70;99.90
23729;DHT22;12045;60.214;24.724;2022-12-28T07:39:07;2.30;99.90
23729;DHT22;12045;60.214;24.724;2022-12-28T07:41:34;1.10;99.90
23729;DHT22;12045;60.214;24.724;2022-12-28T07:44:06;2.90;99.90
23729;DHT22;12045;60.214;24.724;2022-12-28T07:46:35;2.80;99.90
23729;DHT22;12045;60.214;24.724;2022-12-28T07:49:03;2.30;99.90
23729;DHT22;12045;60.214;24.724;2022-12-28T07:51:33;1.20;99.90
23729;DHT22;12045;60.214;24.724;2022-12-28T07:54:01;3.00;99.90
23729;DHT22;12045;60.214;24.724;2022-12-28T07:56:29;2.80;99.90
23729;DHT22;12045;60.214;24.724;2022-12-28T07:58:59;2.30;99.90
23729;DHT22;12045;60.214;24.724;2022-12-28T08:01:29;1.30;99.90
23729;DHT22;12045;60.214;24.724;2022-12-28T08:04:00;1.10;99.90
23729;DHT22;12045;60.214;24.724;2022-12-28T08:06:29;1.00;99.90
23729;DHT22;12045;60.214;24.724;2022-12-28T08:08:59;0.70;99.90
23729;DHT22;12045;60.214;24.724;2022-12-28T08:11:29;2.60;99.90
23729;DHT22;12045;60.214;24.724;2022-12-28T08:13:58;3.30;99.90
23729;DHT22;12045;60.214;24.724;2022-12-28T08:16:31;1.00;99.90
23729;DHT22;12045;60.214;24.724;2022-12-28T08:18:59;1.00;99.90
23729;DHT22;12045;60.214;24.724;2022-12-28T08:21:29;1.90;99.90
23729;DHT22;12045;60.214;24.724;2022-12-28T08:23:58;2.50;99.90
23729;DHT22;12045;60.214;24.724;2022-12-28T08:26:34;0.50;99.90
23729;DHT22;12045;60.214;24.724;2022-12-28T08:29:05;0.70;99.90
23729;DHT22;12045;60.214;24.724;2022-12-28T08:31:35;0.60;99.90
23729;DHT22;12045;60.214;24.724;2022-12-28T08:34:04;0.80;99.90
23729;DHT22;12045;60.214;24.724;2022-12-28T08:36:32;2.10;99.90
23729;DHT22;12045;60.214;24.724;2022-12-28T08:39:00;-0.20;99.90
23729;DHT22;12045;60.214;24.724;2022-12-28T08:41:29;2.20;99.90
23729;DHT22;12045;60.214;24.724;2022-12-28T08:43:57;1.20;99.90
23729;DHT22;12045;60.214;24.724;2022-12-28T08:46:30;2.00;99.90
23729;DHT22;12045;60.214;24.724;2022-12-28T08:48:59;0.70;99.90
23729;DHT22;12045;60.214;24.724;2022-12-28T08:51:30;1.00;99.90
23729;DHT22;12045;60.214;24.724;2022-12-28T08:54:02;2.10;99.90
23729;DHT22;12045;60.214;24.724;2022-12-28T08:56:34;0.10;99.90
23729;DHT22;12045;60.214;24.724;2022-12-28T08:59:02;0.20;99.90
23729;DHT22;12045;60.214;24.724;2022-12-28T09:01:36;0.30;99.90
23729;DHT22;12045;60.214;24.724;2022-12-28T09:04:12;2.20;99.90
23729;DHT22;12045;60.214;24.724;2022-12-28T09:06:40;0.80;99.90
23729;DHT22;12045;60.214;24.724;2022-12-28T09:09:11;0.50;99.90
23729;DHT22;12045;60.214;24.724;2022-12-28T09:11:39;0.00;99.90
23729;DHT22;12045;60.214;24.724;2022-12-28T09:14:08;0.40;99.90
23729;DHT22;12045;60.214;24.724;2022-12-28T09:16:38;0.40;99.90
23729;DHT22;12045;60.214;24.724;2022-12-28T09:19:07;0.60;99.90
23729;DHT22;12045;60.214;24.724;2022-12-28T09:21:38;3.00;99.90
23729;DHT22;12045;60.214;24.724;2022-12-28T09:24:05;1.10;99.90
23729;DHT22;12045;60.214;24.724;2022-12-28T09:26:35;0.50;99.90
23729;DHT22;12045;60.214;24.724;2022-12-28T09:29:05;0.60;99.90
23729;DHT22;12045;60.214;24.724;2022-12-28T09:31:35;0.40;99.90
23729;DHT22;12045;60.214;24.724;2022-12-28T09:34:05;1.80;99.90
23729;DHT22;12045;60.214;24.724;2022-12-28T09:36:52;1.80;99.90
23729;DHT22;12045;60.214;24.724;2022-12-28T09:39:20;0.60;99.90
23729;DHT22;12045;60.214;24.724;2022-12-28T09:45:08;0.50;99.90
23729;DHT22;12045;60.214;24.724;2022-12-28T09:47:38;0.30;99.90
23729;DHT22;12045;60.214;24.724;2022-12-28T09:53:14;-0.10;99.90
23729;DHT22;12045;60.214;24.724;2022-12-28T09:58:33;-0.20;99.90
23729;DHT22;12045;60.214;24.724;2022-12-28T10:01:03;1.40;99.90
23729;DHT22;12045;60.214;24.724;2022-12-28T10:03:35;0.20;99.90
23729;DHT22;12045;60.214;24.724;2022-12-28T10:06:10;0.20;99.90
23729;DHT22;12045;60.214;24.724;2022-12-28T10:08:47;0.20;99.90
23729;DHT22;12045;60.214;24.724;2022-12-28T10:11:19;0.20;99.90
23729;DHT22;12045;60.214;24.724;2022-12-28T10:13:54;1.30;99.90
23729;DHT22;12045;60.214;24.724;2022-12-28T10:16:25;0.20;99.90
23729;DHT22;12045;60.214;24.724;2022-12-28T10:18:54;0.80;99.90
23729;DHT22;12045;60.214;24.724;2022-12-28T10:21:23;0.30;99.90
23729;DHT22;12045;60.214;24.724;2022-12-28T10:23:59;0.40;99.90
23729;DHT22;12045;60.214;24.724;2022-12-28T10:26:47;0.40;99.90
23729;DHT22;12045;60.214;24.724;2022-12-28T10:29:20;0.60;99.90
23729;DHT22;12045;60.214;24.724;2022-12-28T10:32:01;1.20;99.90
23729;DHT22;12045;60.214;24.724;2022-12-28T10:34:30;0.30;99.90
23729;DHT22;12045;60.214;24.724;2022-12-28T10:37:13;0.20;99.90
23729;DHT22;12045;60.214;24.724;2022-12-28T10:39:57;1.70;99.90
23729;DHT22;12045;60.214;24.724;2022-12-28T10:42:38;0.80;99.90
23729;DHT22;12045;60.214;24.724;2022-12-28T10:45:16;0.50;99.90
23729;DHT22;12045;60.214;24.724;2022-12-28T10:47:49;1.60;99.90
23729;DHT22;12045;60.214;24.724;2022-12-28T10:50:36;0.70;99.90
23729;DHT22;12045;60.214;24.724;2022-12-28T10:53:22;0.60;99.90
23729;DHT22;12045;60.214;24.724;2022-12-28T10:58:41;0.40;99.90
23729;DHT22;12045;60.214;24.724;2022-12-28T11:03:42;0.40;99.90
23729;DHT22;12045;60.214;24.724;2022-12-28T11:06:18;1.60;99.90
23729;DHT22;12045;60.214;24.724;2022-12-28T11:11:48;0.40;99.90
23729;DHT22;12045;60.214;24.724;2022-12-28T11:14:32;0.40;99.90
23729;DHT22;12045;60.214;24.724;2022-12-28T11:17:24;1.10;99.90
23729;DHT22;12045;60.214;24.724;2022-12-28T11:19:55;0.60;99.90
23729;DHT22;12045;60.214;24.724;2022-12-28T11:22:26;2.20;99.90
23729;DHT22;12045;60.214;24.724;2022-12-28T11:24:56;1.80;99.90
23729;DHT22;12045;60.214;24.724;2022-12-28T11:27:25;2.30;99.90
23729;DHT22;12045;60.214;24.724;2022-12-28T11:29:54;0.70;99.90
23729;DHT22;12045;60.214;24.724;2022-12-28T11:32:31;0.30;99.90
23729;DHT22;12045;60.214;24.724;2022-12-28T11:35:02;0.40;99.90
23729;DHT22;12045;60.214;24.724;2022-12-28T11:37:30;0.30;99.90
23729;DHT22;12045;60.214;24.724;2022-12-28T11:39:57;0.40;99.90
23729;DHT22;12045;60.214;24.724;2022-12-28T11:45:11;0.90;99.90
23729;DHT22;12045;60.214;24.724;2022-12-28T11:47:39;0.30;99.90
23729;DHT22;12045;60.214;24.724;2022-12-28T11:56:08;0.20;99.90
23729;DHT22;12045;60.214;24.724;2022-12-28T12:11:49;1.30;99.90
23729;DHT22;12045;60.214;24.724;2022-12-28T12:14:25;0.80;99.90
23729;DHT22;12045;60.214;24.724;2022-12-28T12:17:35;0.40;99.90
23729;DHT22;12045;60.214;24.724;2022-12-28T12:19:56;0.30;99.90
23729;DHT22;12045;60.214;24.724;2022-12-28T12:22:28;0.40;99.90
23729;DHT22;12045;60.214;24.724;2022-12-28T12:25:07;2.10;99.90
23729;DHT22;12045;60.214;24.724;2022-12-28T12:27:39;0.50;99.90
23729;DHT22;12045;60.214;24.724;2022-12-28T12:30:20;1.60;99.90
23729;DHT22;12045;60.214;24.724;2022-12-28T12:35:30;1.20;99.90
23729;DHT22;12045;60.214;24.724;2022-12-28T12:38:09;0.80;99.90
23729;DHT22;12045;60.214;24.724;2022-12-28T12:43:35;0.80;99.90
23729;DHT22;12045;60.214;24.724;2022-12-28T12:49:28;0.10;99.90
23729;DHT22;12045;60.214;24.724;2022-12-28T12:52:13;0.90;99.90
23729;DHT22;12045;60.214;24.724;2022-12-28T13:05:26;1.50;99.90
23729;DHT22;12045;60.214;24.724;2022-12-28T13:07:56;0.60;99.90
23729;DHT22;12045;60.214;24.724;2022-12-28T13:10:36;0.50;99.90
23729;DHT22;12045;60.214;24.724;2022-12-28T13:13:18;1.20;99.90
23729;DHT22;12045;60.214;24.724;2022-12-28T13:15:47;1.90;99.90
23729;DHT22;12045;60.214;24.724;2022-12-28T13:18:17;1.40;99.90
23729;DHT22;12045;60.214;24.724;2022-12-28T13:21:05;2.20;99.90
23729;DHT22;12045;60.214;24.724;2022-12-28T13:23:43;0.80;99.90
23729;DHT22;12045;60.214;24.724;2022-12-28T13:26:13;2.50;99.90
23729;DHT22;12045;60.214;24.724;2022-12-28T13:28:58;2.30;99.90
23729;DHT22;12045;60.214;24.724;2022-12-28T13:31:34;1.40;99.90
23729;DHT22;12045;60.214;24.724;2022-12-28T13:34:17;1.80;99.90
23729;DHT22;12045;60.214;24.724;2022-12-28T13:36:59;1.20;99.90
23729;DHT22;12045;60.214;24.724;2022-12-28T13:39:31;0.40;99.90
23729;DHT22;12045;60.214;24.724;2022-12-28T13:42:17;-0.10;99.90
23729;DHT22;12045;60.214;24.724;2022-12-28T13:47:23;0.00;99.90
23729;DHT22;12045;60.214;24.724;2022-12-28T13:52:51;-0.30;99.90
23729;DHT22;12045;60.214;24.724;2022-12-28T13:55:23;0.20;99.90
23729;DHT22;12045;60.214;24.724;2022-12-28T13:57:55;1.60;99.90
23729;DHT22;12045;60.214;24.724;2022-12-28T14:00:27;-0.10;99.90
23729;DHT22;12045;60.214;24.724;2022-12-28T14:02:56;-0.20;99.90
23729;DHT22;12045;60.214;24.724;2022-12-28T14:05:28;1.40;99.90
23729;DHT22;12045;60.214;24.724;2022-12-28T14:07:57;1.50;99.90
23729;DHT22;12045;60.214;24.724;2022-12-28T14:10:26;1.10;99.90
23729;DHT22;12045;60.214;24.724;2022-12-28T14:12:54;-0.20;99.90
23729;DHT22;12045;60.214;24.724;2022-12-28T14:15:22;-0.10;99.90
23729;DHT22;12045;60.214;24.724;2022-12-28T14:17:50;-0.20;99.90
23729;DHT22;12045;60.214;24.724;2022-12-28T14:20:18;0.10;99.90
23729;DHT22;12045;60.214;24.724;2022-12-28T14:22:46;-0.10;99.90
23729;DHT22;12045;60.214;24.724;2022-12-28T14:25:16;0.70;99.90
23729;DHT22;12045;60.214;24.724;2022-12-28T14:30:59;0.00;99.90
23729;DHT22;12045;60.214;24.724;2022-12-28T14:33:29;0.20;99.90
23729;DHT22;12045;60.214;24.724;2022-12-28T14:36:01;1.10;99.90
23729;DHT22;12045;60.214;24.724;2022-12-28T14:38:45;-0.10;99.90
23729;DHT22;12045;60.214;24.724;2022-12-28T14:41:23;-0.30;99.90
23729;DHT22;12045;60.214;24.724;2022-12-28T14:43:54;-0.40;99.90
23729;DHT22;12045;60.214;24.724;2022-12-28T14:46:34;-0.30;99.90
23729;DHT22;12045;60.214;24.724;2022-12-28T14:54:47;-0.80;99.90
23729;DHT22;12045;60.214;24.724;2022-12-28T14:57:29;-0.50;99.90
23729;DHT22;12045;60.214;24.724;2022-12-28T15:00:05;-0.70;99.90
23729;DHT22;12045;60.214;24.724;2022-12-28T15:05:01;-0.50;99.90
23729;DHT22;12045;60.214;24.724;2022-12-28T15:07:32;-0.60;99.90
23729;DHT22;12045;60.214;24.724;2022-12-28T15:10:00;-0.10;99.90
23729;DHT22;12045;60.214;24.724;2022-12-28T15:12:27;0.30;99.90
23729;DHT22;12045;60.214;24.724;2022-12-28T15:14:55;1.00;99.90
23729;DHT22;12045;60.214;24.724;2022-12-28T15:17:22;1.10;99.90
23729;DHT22;12045;60.214;24.724;2022-12-28T15:19:59;-0.70;99.90
23729;DHT22;12045;60.214;24.724;2022-12-28T15:22:26;-0.80;99.90
23729;DHT22;12045;60.214;24.724;2022-12-28T15:24:53;0.00;99.90
23729;DHT22;12045;60.214;24.724;2022-12-28T15:27:21;-0.90;99.90
23729;DHT22;12045;60.214;24.724;2022-12-28T15:29:50;0.70;99.90
23729;DHT22;12045;60.214;24.724;2022-12-28T15:32:36;-0.90;99.90
23729;DHT22;12045;60.214;24.724;2022-12-28T15:35:04;-1.00;99.90
23729;DHT22;12045;60.214;24.724;2022-12-28T15:37:32;-1.00;99.90
23729;DHT22;12045;60.214;24.724;2022-12-28T15:39:59;0.10;99.90
23729;DHT22;12045;60.214;24.724;2022-12-28T15:42:27;-1.00;99.90
23729;DHT22;12045;60.214;24.724;2022-12-28T15:44:54;-1.10;99.90
23729;DHT22;12045;60.214;24.724;2022-12-28T15:47:22;-1.00;99.90
23729;DHT22;12045;60.214;24.724;2022-12-28T15:49:50;-0.80;99.90
23729;DHT22;12045;60.214;24.724;2022-12-28T15:52:17;-0.30;99.90
23729;DHT22;12045;60.214;24.724;2022-12-28T15:54:45;-0.80;99.90
23729;DHT22;12045;60.214;24.724;2022-12-28T15:57:13;-0.90;99.90
23729;DHT22;12045;60.214;24.724;2022-12-28T15:59:42;-0.80;99.90
23729;DHT22;12045;60.214;24.724;2022-12-28T16:02:10;-0.90;99.90
23729;DHT22;12045;60.214;24.724;2022-12-28T16:04:38;-0.40;99.90
23729;DHT22;12045;60.214;24.724;2022-12-28T16:07:05;-0.70;99.90
23729;DHT22;12045;60.214;24.724;2022-12-28T16:09:33;-0.80;99.90
23729;DHT22;12045;60.214;24.724;2022-12-28T16:12:01;-1.00;99.90
23729;DHT22;12045;60.214;24.724;2022-12-28T16:14:28;-0.60;99.90
23729;DHT22;12045;60.214;24.724;2022-12-28T16:16:56;-0.90;99.90
23729;DHT22;12045;60.214;24.724;2022-12-28T16:19:23;0.40;99.90
23729;DHT22;12045;60.214;24.724;2022-12-28T16:21:51;-1.10;99.90
23729;DHT22;12045;60.214;24.724;2022-12-28T16:24:19;0.00;99.90
23729;DHT22;12045;60.214;24.724;2022-12-28T16:26:46;-0.90;99.90
23729;DHT22;12045;60.214;24.724;2022-12-28T16:29:13;-1.00;99.90
23729;DHT22;12045;60.214;24.724;2022-12-28T16:31:41;-0.80;99.90
23729;DHT22;12045;60.214;24.724;2022-12-28T16:34:16;-0.90;99.90
23729;DHT22;12045;60.214;24.724;2022-12-28T16:36:44;-1.40;99.90
23729;DHT22;12045;60.214;24.724;2022-12-28T16:39:14;1.40;99.90
23729;DHT22;12045;60.214;24.724;2022-12-28T16:41:42;1.00;99.90
23729;DHT22;12045;60.214;24.724;2022-12-28T16:44:16;-1.20;99.90
23729;DHT22;12045;60.214;24.724;2022-12-28T16:46:43;-0.70;99.90
23729;DHT22;12045;60.214;24.724;2022-12-28T16:49:11;-1.10;99.90
23729;DHT22;12045;60.214;24.724;2022-12-28T16:51:41;-1.10;99.90
23729;DHT22;12045;60.214;24.724;2022-12-28T16:54:13;-0.90;99.90
23729;DHT22;12045;60.214;24.724;2022-12-28T16:56:43;-1.10;99.90
23729;DHT22;12045;60.214;24.724;2022-12-28T16:59:15;0.00;99.90
23729;DHT22;12045;60.214;24.724;2022-12-28T17:01:43;-0.90;99.90
23729;DHT22;12045;60.214;24.724;2022-12-28T17:04:11;-0.90;99.90
23729;DHT22;12045;60.214;24.724;2022-12-28T17:06:40;-0.80;99.90
23729;DHT22;12045;60.214;24.724;2022-12-28T17:09:08;-0.80;99.90
23729;DHT22;12045;60.214;24.724;2022-12-28T17:11:36;-0.30;99.90
23729;DHT22;12045;60.214;24.724;2022-12-28T17:14:06;-0.80;99.90
23729;DHT22;12045;60.214;24.724;2022-12-28T17:16:34;-0.70;99.90
23729;DHT22;12045;60.214;24.724;2022-12-28T17:19:02;-0.20;99.90
23729;DHT22;12045;60.214;24.724;2022-12-28T17:21:31;-0.70;99.90
23729;DHT22;12045;60.214;24.724;2022-12-28T17:23:59;-1.70;99.90
23729;DHT22;12045;60.214;24.724;2022-12-28T17:26:26;-0.90;99.90
23729;DHT22;12045;60.214;24.724;2022-12-28T17:28:54;-1.10;99.90
23729;DHT22;12045;60.214;24.724;2022-12-28T17:31:22;-1.40;99.90
23729;DHT22;12045;60.214;24.724;2022-12-28T17:33:52;-0.90;99.90
23729;DHT22;12045;60.214;24.724;2022-12-28T17:36:20;1.50;99.90
23729;DHT22;12045;60.214;24.724;2022-12-28T17:38:48;0.60;99.90
23729;DHT22;12045;60.214;24.724;2022-12-28T17:41:24;-1.40;99.90
23729;DHT22;12045;60.214;24.724;2022-12-28T17:43:55;-1.40;99.90
23729;DHT22;12045;60.214;24.724;2022-12-28T17:46:24;-1.20;99.90